sensor_id;sensor_type;location;lat;lon;timestamp;temperature;humidity
12893;DHT22;6514;48.606;9.222;2023-12-20T00:00:21;5.10;99.90
12893;DHT22;6514;48.606;9.222;2023-12-20T00:02:47;5.10;99.90
12893;DHT22;6514;48.606;9.222;2023-12-20T00:05:14;5.10;99.90
12893;DHT22;6514;48.606;9.222;2023-12-20T00:07:41;5.00;99.90
12893;DHT22;6514;48.606;9.222;2023-12-20T00:10:08;5.00;99.90
12893;DHT22;6514;48.606;9.222;2023-12-20T00:12:35;5.10;99.90
12893;DHT22;6514;48.606;9.222;2023-12-20T00:15:04;5.10;99.90
12893;DHT22;6514;48.606;9.222;2023-12-20T00:17:31;5.10;99.90
12893;DHT22;6514;48.606;9.222;2023-12-20T00:22:26;5.10;99.90
12893;DHT22;6514;48.606;9.222;2023-12-20T00:24:52;5.10;99.90
12893;DHT22;6514;48.606;9.222;2023-12-20T00:27:19;4.20;99.90
12893;DHT22;6514;48.606;9.222;2023-12-20T00:29:46;5.20;99.90
12893;DHT22;6514;48.606;9.222;2023-12-20T00:32:16;5.20;99.90
12893;DHT22;6514;48.606;9.222;2023-12-20T00:34:43;5.20;99.90
12893;DHT22;6514;48.606;9.222;2023-12-20T00:37:10;5.20;99.90
12893;DHT22;6514;48.606;9.222;2023-12-20T00:39:38;5.20;99.90
12893;DHT22;6514;48.606;9.222;2023-12-20T00:42:05;5.20;99.90
12893;DHT22;6514;48.606;9.222;2023-12-20T00:44:32;5.30;99.90
12893;DHT22;6514;48.606;9.222;2023-12-20T00:46:59;5.30;99.90
12893;DHT22;6514;48.606;9.222;2023-12-20T00:49:27;5.40;99.90
12893;DHT22;6514;48.606;9.222;2023-12-20T00:51:54;5.50;99.90
12893;DHT22;6514;48.606;9.222;2023-12-20T00:54:21;5.50;99.90
12893;DHT22;6514;48.606;9.222;2023-12-20T00:56:48;5.50;99.90
12893;DHT22;6514;48.606;9.222;2023-12-20T00:59:16;5.50;99.90
12893;DHT22;6514;48.606;9.222;2023-12-20T01:01:43;5.50;99.90
12893;DHT22;6514;48.606;9.222;2023-12-20T01:04:10;5.60;99.90
12893;DHT22;6514;48.606;9.222;2023-12-20T01:06:38;5.60;99.90
12893;DHT22;6514;48.606;9.222;2023-12-20T01:09:08;5.60;99.90
12893;DHT22;6514;48.606;9.222;2023-12-20T01:11:35;5.60;99.90
12893;DHT22;6514;48.606;9.222;2023-12-20T01:14:02;5.60;99.90
12893;DHT22;6514;48.606;9.222;2023-12-20T01:16:28;5.60;99.90
12893;DHT22;6514;48.606;9.222;2023-12-20T01:18:55;5.70;99.90
12893;DHT22;6514;48.606;9.222;2023-12-20T01:21:22;5.70;99.90
12893;DHT22;6514;48.606;9.222;2023-12-20T01:23:50;5.60;99.90
12893;DHT22;6514;48.606;9.222;2023-12-20T01:26:18;5.70;99.90
12893;DHT22;6514;48.606;9.222;2023-12-20T01:28:44;5.60;99.90
12893;DHT22;6514;48.606;9.222;2023-12-20T01:31:11;5.60;99.90
12893;DHT22;6514;48.606;9.222;2023-12-20T01:33:38;5.60;99.90
12893;DHT22;6514;48.606;9.222;2023-12-20T01:36:05;5.60;99.90
12893;DHT22;6514;48.606;9.222;2023-12-20T01:38:32;5.60;99.90
12893;DHT22;6514;48.606;9.222;2023-12-20T01:41:00;5.60;99.90
12893;DHT22;6514;48.606;9.222;2023-12-20T01:43:27;5.50;99.90
12893;DHT22;6514;48.606;9.222;2023-12-20T01:45:56;5.60;99.90
12893;DHT22;6514;48.606;9.222;2023-12-20T01:48:24;5.50;99.90
12893;DHT22;6514;48.606;9.222;2023-12-20T01:50:51;6.50;99.90
12893;DHT22;6514;48.606;9.222;2023-12-20T01:53:19;5.50;99.90
12893;DHT22;6514;48.606;9.222;2023-12-20T01:55:49;5.50;99.90
12893;DHT22;6514;48.606;9.222;2023-12-20T01:58:19;5.50;99.90
12893;DHT22;6514;48.606;9.222;2023-12-20T02:00:46;5.50;99.90
12893;DHT22;6514;48.606;9.222;2023-12-20T02:03:13;6.00;99.90
12893;DHT22;6514;48.606;9.222;2023-12-20T02:05:40;5.50;99.90
12893;DHT22;6514;48.606;9.222;2023-12-20T02:08:07;5.50;99.90
12893;DHT22;6514;48.606;9.222;2023-12-20T02:10:34;5.50;99.90
12893;DHT22;6514;48.606;9.222;2023-12-20T02:13:01;5.50;99.90
12893;DHT22;6514;48.606;9.222;2023-12-20T02:15:29;5.50;99.90
12893;DHT22;6514;48.606;9.222;2023-12-20T02:17:56;5.50;99.90
12893;DHT22;6514;48.606;9.222;2023-12-20T02:20:23;5.50;99.90
12893;DHT22;6514;48.606;9.222;2023-12-20T02:22:51;5.50;99.90
12893;DHT22;6514;48.606;9.222;2023-12-20T02:25:18;5.50;99.90
12893;DHT22;6514;48.606;9.222;2023-12-20T02:27:45;5.40;99.90
12893;DHT22;6514;48.606;9.222;2023-12-20T02:30:12;5.40;99.90
12893;DHT22;6514;48.606;9.222;2023-12-20T02:32:39;5.40;99.90
12893;DHT22;6514;48.606;9.222;2023-12-20T02:35:06;5.40;99.90
12893;DHT22;6514;48.606;9.222;2023-12-20T02:37:33;5.40;99.90
12893;DHT22;6514;48.606;9.222;2023-12-20T02:40:01;5.30;99.90
12893;DHT22;6514;48.606;9.222;2023-12-20T02:42:29;5.30;99.90
12893;DHT22;6514;48.606;9.222;2023-12-20T02:44:56;5.30;99.90
12893;DHT22;6514;48.606;9.222;2023-12-20T02:47:23;5.30;99.90
12893;DHT22;6514;48.606;9.222;2023-12-20T02:49:50;5.20;99.90
12893;DHT22;6514;48.606;9.222;2023-12-20T02:52:18;5.20;99.90
12893;DHT22;6514;48.606;9.222;2023-12-20T02:54:45;5.20;99.90
12893;DHT22;6514;48.606;9.222;2023-12-20T02:57:13;5.20;99.90
12893;DHT22;6514;48.606;9.222;2023-12-20T02:59:40;5.20;99.90
12893;DHT22;6514;48.606;9.222;2023-12-20T03:02:06;5.20;99.90
12893;DHT22;6514;48.606;9.222;2023-12-20T03:04:33;5.20;99.90
12893;DHT22;6514;48.606;9.222;2023-12-20T03:07:00;5.20;99.90
12893;DHT22;6514;48.606;9.222;2023-12-20T03:09:27;5.20;99.90
12893;DHT22;6514;48.606;9.222;2023-12-20T03:11:54;5.20;99.90
12893;DHT22;6514;48.606;9.222;2023-12-20T03:14:22;5.20;99.90
12893;DHT22;6514;48.606;9.222;2023-12-20T03:16:49;5.20;99.90
12893;DHT22;6514;48.606;9.222;2023-12-20T03:19:16;5.20;99.90
12893;DHT22;6514;48.606;9.222;2023-12-20T03:21:44;5.20;99.90
12893;DHT22;6514;48.606;9.222;2023-12-20T03:24:11;5.30;99.90
12893;DHT22;6514;48.606;9.222;2023-12-20T03:26:38;5.20;99.90
12893;DHT22;6514;48.606;9.222;2023-12-20T03:29:04;5.30;99.90
12893;DHT22;6514;48.606;9.222;2023-12-20T03:31:32;5.30;99.90
12893;DHT22;6514;48.606;9.222;2023-12-20T03:33:59;5.30;99.90
12893;DHT22;6514;48.606;9.222;2023-12-20T03:36:26;5.30;99.90
12893;DHT22;6514;48.606;9.222;2023-12-20T03:38:53;5.30;99.90
12893;DHT22;6514;48.606;9.222;2023-12-20T03:41:20;5.30;99.90
12893;DHT22;6514;48.606;9.222;2023-12-20T03:43:46;5.30;99.90
12893;DHT22;6514;48.606;9.222;2023-12-20T03:46:13;5.30;99.90
12893;DHT22;6514;48.606;9.222;2023-12-20T03:48:41;5.30;99.90
12893;DHT22;6514;48.606;9.222;2023-12-20T03:51:08;5.30;99.90
12893;DHT22;6514;48.606;9.222;2023-12-20T03:53:36;5.30;99.90
12893;DHT22;6514;48.606;9.222;2023-12-20T03:56:03;5.30;99.90
12893;DHT22;6514;48.606;9.222;2023-12-20T03:58:30;5.30;99.90
12893;DHT22;6514;48.606;9.222;2023-12-20T04:00:57;5.20;99.90
12893;DHT22;6514;48.606;9.222;2023-12-20T04:03:25;5.20;99.90
12893;DHT22;6514;48.606;9.222;2023-12-20T04:05:53;5.20;99.90
12893;DHT22;6514;48.606;9.222;2023-12-20T04:08:20;5.20;99.90
12893;DHT22;6514;48.606;9.222;2023-12-20T04:10:48;5.20;99.90
12893;DHT22;6514;48.606;9.222;2023-12-20T04:13:14;5.20;99.90
12893;DHT22;6514;48.606;9.222;2023-12-20T04:15:41;5.20;99.90
12893;DHT22;6514;48.606;9.222;2023-12-20T04:18:08;5.20;99.90
12893;DHT22;6514;48.606;9.222;2023-12-20T04:20:35;5.20;99.90
12893;DHT22;6514;48.606;9.222;2023-12-20T04:23:05;5.10;99.90
12893;DHT22;6514;48.606;9.222;2023-12-20T04:25:32;5.10;99.90
12893;DHT22;6514;48.606;9.222;2023-12-20T04:27:59;5.10;99.90
12893;DHT22;6514;48.606;9.222;2023-12-20T04:30:25;5.10;99.90
12893;DHT22;6514;48.606;9.222;2023-12-20T04:32:52;5.10;99.90
12893;DHT22;6514;48.606;9.222;2023-12-20T04:35:19;5.10;99.90
12893;DHT22;6514;48.606;9.222;2023-12-20T04:37:46;5.10;99.90
12893;DHT22;6514;48.606;9.222;2023-12-20T04:40:16;5.00;99.90
12893;DHT22;6514;48.606;9.222;2023-12-20T04:42:43;5.00;99.90
12893;DHT22;6514;48.606;9.222;2023-12-20T04:45:10;5.00;99.90
12893;DHT22;6514;48.606;9.222;2023-12-20T04:47:38;5.00;99.90
12893;DHT22;6514;48.606;9.222;2023-12-20T04:50:06;5.00;99.90
12893;DHT22;6514;48.606;9.222;2023-12-20T04:52:33;4.90;99.90
12893;DHT22;6514;48.606;9.222;2023-12-20T04:55:00;4.90;99.90
12893;DHT22;6514;48.606;9.222;2023-12-20T04:57:28;4.90;99.90
12893;DHT22;6514;48.606;9.222;2023-12-20T04:59:55;4.90;99.90
12893;DHT22;6514;48.606;9.222;2023-12-20T05:02:22;4.90;99.90
12893;DHT22;6514;48.606;9.222;2023-12-20T05:04:49;4.90;99.90
12893;DHT22;6514;48.606;9.222;2023-12-20T05:07:15;4.90;99.90
12893;DHT22;6514;48.606;9.222;2023-12-20T05:09:42;4.90;99.90
12893;DHT22;6514;48.606;9.222;2023-12-20T05:12:09;4.90;99.90
12893;DHT22;6514;48.606;9.222;2023-12-20T05:14:37;4.80;99.90
12893;DHT22;6514;48.606;9.222;2023-12-20T05:17:04;4.90;99.90
12893;DHT22;6514;48.606;9.222;2023-12-20T05:19:31;4.80;99.90
12893;DHT22;6514;48.606;9.222;2023-12-20T05:22:00;4.80;99.90
12893;DHT22;6514;48.606;9.222;2023-12-20T05:24:27;4.80;99.90
12893;DHT22;6514;48.606;9.222;2023-12-20T05:26:54;4.80;99.90
12893;DHT22;6514;48.606;9.222;2023-12-20T05:29:21;4.80;99.90
12893;DHT22;6514;48.606;9.222;2023-12-20T05:31:49;4.80;99.90
12893;DHT22;6514;48.606;9.222;2023-12-20T05:34:16;4.80;99.90
12893;DHT22;6514;48.606;9.222;2023-12-20T05:36:42;4.80;99.90
12893;DHT22;6514;48.606;9.222;2023-12-20T05:39:09;4.80;99.90
12893;DHT22;6514;48.606;9.222;2023-12-20T05:41:36;4.80;99.90
12893;DHT22;6514;48.606;9.222;2023-12-20T05:44:03;4.80;99.90
12893;DHT22;6514;48.606;9.222;2023-12-20T05:46:30;4.70;99.90
12893;DHT22;6514;48.606;9.222;2023-12-20T05:48:58;4.70;99.90
12893;DHT22;6514;48.606;9.222;2023-12-20T05:51:25;4.70;99.90
12893;DHT22;6514;48.606;9.222;2023-12-20T05:53:52;4.70;99.90
12893;DHT22;6514;48.606;9.222;2023-12-20T05:56:19;4.70;99.90
12893;DHT22;6514;48.606;9.222;2023-12-20T05:58:45;4.70;99.90
12893;DHT22;6514;48.606;9.222;2023-12-20T06:01:14;4.70;99.90
12893;DHT22;6514;48.606;9.222;2023-12-20T06:03:43;4.80;99.90
12893;DHT22;6514;48.606;9.222;2023-12-20T06:06:12;4.80;99.90
12893;DHT22;6514;48.606;9.222;2023-12-20T06:08:40;4.70;99.90
12893;DHT22;6514;48.606;9.222;2023-12-20T06:11:08;4.70;99.90
12893;DHT22;6514;48.606;9.222;2023-12-20T06:13:35;4.70;99.90
12893;DHT22;6514;48.606;9.222;2023-12-20T06:16:03;4.70;99.90
12893;DHT22;6514;48.606;9.222;2023-12-20T06:18:30;4.70;99.90
12893;DHT22;6514;48.606;9.222;2023-12-20T06:20:57;4.70;99.90
12893;DHT22;6514;48.606;9.222;2023-12-20T06:23:25;4.70;99.90
12893;DHT22;6514;48.606;9.222;2023-12-20T06:25:53;4.70;99.90
12893;DHT22;6514;48.606;9.222;2023-12-20T06:28:20;4.70;99.90
12893;DHT22;6514;48.606;9.222;2023-12-20T06:30:47;4.70;99.90
12893;DHT22;6514;48.606;9.222;2023-12-20T06:33:14;4.70;99.90
12893;DHT22;6514;48.606;9.222;2023-12-20T06:35:41;4.70;99.90
12893;DHT22;6514;48.606;9.222;2023-12-20T06:38:08;4.60;99.90
12893;DHT22;6514;48.606;9.222;2023-12-20T06:40:36;4.60;99.90
12893;DHT22;6514;48.606;9.222;2023-12-20T06:43:03;4.60;99.90
12893;DHT22;6514;48.606;9.222;2023-12-20T06:45:32;4.70;99.90
12893;DHT22;6514;48.606;9.222;2023-12-20T06:47:59;4.60;99.90
12893;DHT22;6514;48.606;9.222;2023-12-20T06:50:25;4.60;99.90
12893;DHT22;6514;48.606;9.222;2023-12-20T06:52:53;4.60;99.90
12893;DHT22;6514;48.606;9.222;2023-12-20T06:55:19;4.60;99.90
12893;DHT22;6514;48.606;9.222;2023-12-20T06:57:48;4.60;99.90
12893;DHT22;6514;48.606;9.222;2023-12-20T07:00:15;4.60;99.90
12893;DHT22;6514;48.606;9.222;2023-12-20T07:02:44;4.60;99.90
12893;DHT22;6514;48.606;9.222;2023-12-20T07:05:10;4.60;99.90
12893;DHT22;6514;48.606;9.222;2023-12-20T07:07:37;4.60;99.90
12893;DHT22;6514;48.606;9.222;2023-12-20T07:10:04;4.60;99.90
12893;DHT22;6514;48.606;9.222;2023-12-20T07:12:33;4.60;99.90
12893;DHT22;6514;48.606;9.222;2023-12-20T07:15:01;4.60;99.90
12893;DHT22;6514;48.606;9.222;2023-12-20T07:17:28;4.60;99.90
12893;DHT22;6514;48.606;9.222;2023-12-20T07:19:55;4.70;99.90
12893;DHT22;6514;48.606;9.222;2023-12-20T07:22:22;4.60;99.90
12893;DHT22;6514;48.606;9.222;2023-12-20T07:24:49;4.60;99.90
12893;DHT22;6514;48.606;9.222;2023-12-20T07:27:17;4.60;99.90
12893;DHT22;6514;48.606;9.222;2023-12-20T07:29:44;4.60;99.90
12893;DHT22;6514;48.606;9.222;2023-12-20T07:32:12;4.60;99.90
12893;DHT22;6514;48.606;9.222;2023-12-20T07:34:39;4.60;99.90
12893;DHT22;6514;48.606;9.222;2023-12-20T07:37:06;4.70;99.90
12893;DHT22;6514;48.606;9.222;2023-12-20T07:39:35;4.70;99.90
12893;DHT22;6514;48.606;9.222;2023-12-20T07:42:03;4.60;99.90
12893;DHT22;6514;48.606;9.222;2023-12-20T07:44:29;4.60;99.90
12893;DHT22;6514;48.606;9.222;2023-12-20T07:46:56;4.60;99.90
12893;DHT22;6514;48.606;9.222;2023-12-20T07:49:24;4.70;99.90
12893;DHT22;6514;48.606;9.222;2023-12-20T07:51:51;4.70;99.90
12893;DHT22;6514;48.606;9.222;2023-12-20T07:54:18;4.70;99.90
12893;DHT22;6514;48.606;9.222;2023-12-20T07:56:45;4.70;99.90
12893;DHT22;6514;48.606;9.222;2023-12-20T07:59:12;4.80;99.90
12893;DHT22;6514;48.606;9.222;2023-12-20T08:01:39;4.80;99.90
12893;DHT22;6514;48.606;9.222;2023-12-20T08:04:06;4.80;99.90
12893;DHT22;6514;48.606;9.222;2023-12-20T08:06:34;4.90;99.90
12893;DHT22;6514;48.606;9.222;2023-12-20T08:09:01;4.90;99.90
12893;DHT22;6514;48.606;9.222;2023-12-20T08:11:28;5.00;99.90
12893;DHT22;6514;48.606;9.222;2023-12-20T08:13:55;5.00;99.90
12893;DHT22;6514;48.606;9.222;2023-12-20T08:16:22;5.00;99.90
12893;DHT22;6514;48.606;9.222;2023-12-20T08:18:50;5.00;99.90
12893;DHT22;6514;48.606;9.222;2023-12-20T08:21:17;5.10;99.90
12893;DHT22;6514;48.606;9.222;2023-12-20T08:23:47;5.10;99.90
12893;DHT22;6514;48.606;9.222;2023-12-20T08:26:18;5.20;99.90
12893;DHT22;6514;48.606;9.222;2023-12-20T08:28:46;5.20;99.90
12893;DHT22;6514;48.606;9.222;2023-12-20T08:31:14;5.30;99.90
12893;DHT22;6514;48.606;9.222;2023-12-20T08:33:42;5.30;99.90
12893;DHT22;6514;48.606;9.222;2023-12-20T08:36:09;5.30;99.90
12893;DHT22;6514;48.606;9.222;2023-12-20T08:38:36;5.40;99.90
12893;DHT22;6514;48.606;9.222;2023-12-20T08:41:05;5.40;99.90
12893;DHT22;6514;48.606;9.222;2023-12-20T08:43:32;5.40;99.90
12893;DHT22;6514;48.606;9.222;2023-12-20T08:46:00;5.50;99.90
12893;DHT22;6514;48.606;9.222;2023-12-20T08:48:28;5.40;99.90
12893;DHT22;6514;48.606;9.222;2023-12-20T08:50:54;5.50;99.90
12893;DHT22;6514;48.606;9.222;2023-12-20T08:53:21;5.50;99.90
12893;DHT22;6514;48.606;9.222;2023-12-20T08:55:48;5.50;99.90
12893;DHT22;6514;48.606;9.222;2023-12-20T08:58:16;5.60;99.90
12893;DHT22;6514;48.606;9.222;2023-12-20T09:00:43;5.60;99.90
12893;DHT22;6514;48.606;9.222;2023-12-20T09:03:10;5.60;99.90
12893;DHT22;6514;48.606;9.222;2023-12-20T09:05:37;5.60;99.90
12893;DHT22;6514;48.606;9.222;2023-12-20T09:08:04;5.50;99.90
12893;DHT22;6514;48.606;9.222;2023-12-20T09:10:33;5.50;99.90
12893;DHT22;6514;48.606;9.222;2023-12-20T09:13:00;5.50;99.90
12893;DHT22;6514;48.606;9.222;2023-12-20T09:15:28;5.50;99.90
12893;DHT22;6514;48.606;9.222;2023-12-20T09:17:56;5.50;99.90
12893;DHT22;6514;48.606;9.222;2023-12-20T09:20:22;5.50;99.90
12893;DHT22;6514;48.606;9.222;2023-12-20T09:22:49;5.50;99.90
12893;DHT22;6514;48.606;9.222;2023-12-20T09:25:16;5.60;99.90
12893;DHT22;6514;48.606;9.222;2023-12-20T09:27:43;5.60;99.90
12893;DHT22;6514;48.606;9.222;2023-12-20T09:30:10;5.60;99.90
12893;DHT22;6514;48.606;9.222;2023-12-20T09:32:38;5.30;99.90
12893;DHT22;6514;48.606;9.222;2023-12-20T09:35:06;5.80;99.90
12893;DHT22;6514;48.606;9.222;2023-12-20T09:37:34;6.10;99.90
12893;DHT22;6514;48.606;9.222;2023-12-20T09:40:01;6.40;99.90
12893;DHT22;6514;48.606;9.222;2023-12-20T09:42:36;6.70;99.90
12893;DHT22;6514;48.606;9.222;2023-12-20T09:45:08;7.10;99.90
12893;DHT22;6514;48.606;9.222;2023-12-20T09:47:37;7.40;99.90
12893;DHT22;6514;48.606;9.222;2023-12-20T09:50:05;7.70;99.90
12893;DHT22;6514;48.606;9.222;2023-12-20T09:52:33;7.90;99.90
12893;DHT22;6514;48.606;9.222;2023-12-20T09:55:04;7.80;99.90
12893;DHT22;6514;48.606;9.222;2023-12-20T09:57:31;7.90;99.90
12893;DHT22;6514;48.606;9.222;2023-12-20T09:59:58;7.90;99.90
12893;DHT22;6514;48.606;9.222;2023-12-20T10:02:25;8.00;99.90
12893;DHT22;6514;48.606;9.222;2023-12-20T10:04:54;7.90;99.90
12893;DHT22;6514;48.606;9.222;2023-12-20T10:07:21;8.00;99.90
12893;DHT22;6514;48.606;9.222;2023-12-20T10:09:49;8.00;99.90
12893;DHT22;6514;48.606;9.222;2023-12-20T10:12:17;8.00;99.90
12893;DHT22;6514;48.606;9.222;2023-12-20T10:14:44;8.20;99.90
12893;DHT22;6514;48.606;9.222;2023-12-20T10:17:11;8.30;99.90
12893;DHT22;6514;48.606;9.222;2023-12-20T10:19:38;8.50;99.90
12893;DHT22;6514;48.606;9.222;2023-12-20T10:22:06;8.60;99.90
12893;DHT22;6514;48.606;9.222;2023-12-20T10:24:33;8.80;99.90
12893;DHT22;6514;48.606;9.222;2023-12-20T10:27:02;8.70;99.90
12893;DHT22;6514;48.606;9.222;2023-12-20T10:29:32;8.70;99.90
12893;DHT22;6514;48.606;9.222;2023-12-20T10:32:00;8.60;99.90
12893;DHT22;6514;48.606;9.222;2023-12-20T10:34:26;8.40;99.90
12893;DHT22;6514;48.606;9.222;2023-12-20T10:36:53;8.30;99.90
12893;DHT22;6514;48.606;9.222;2023-12-20T10:39:22;8.30;99.90
12893;DHT22;6514;48.606;9.222;2023-12-20T10:41:49;8.30;99.90
12893;DHT22;6514;48.606;9.222;2023-12-20T10:44:16;8.20;99.90
12893;DHT22;6514;48.606;9.222;2023-12-20T10:46:43;8.10;99.90
12893;DHT22;6514;48.606;9.222;2023-12-20T10:49:17;8.10;99.90
12893;DHT22;6514;48.606;9.222;2023-12-20T10:51:46;7.90;99.90
12893;DHT22;6514;48.606;9.222;2023-12-20T10:54:14;7.70;99.90
12893;DHT22;6514;48.606;9.222;2023-12-20T10:56:42;7.70;99.90
12893;DHT22;6514;48.606;9.222;2023-12-20T10:59:11;7.70;99.90
12893;DHT22;6514;48.606;9.222;2023-12-20T11:01:40;7.80;99.90
12893;DHT22;6514;48.606;9.222;2023-12-20T11:04:10;7.80;99.90
12893;DHT22;6514;48.606;9.222;2023-12-20T11:06:46;7.90;99.90
12893;DHT22;6514;48.606;9.222;2023-12-20T11:09:21;8.10;99.90
12893;DHT22;6514;48.606;9.222;2023-12-20T11:12:05;8.10;99.90
12893;DHT22;6514;48.606;9.222;2023-12-20T11:14:42;8.10;99.90
12893;DHT22;6514;48.606;9.222;2023-12-20T11:17:11;8.30;99.90
12893;DHT22;6514;48.606;9.222;2023-12-20T11:20:04;8.60;99.90
12893;DHT22;6514;48.606;9.222;2023-12-20T11:22:32;8.70;99.90
12893;DHT22;6514;48.606;9.222;2023-12-20T11:25:04;8.70;99.90
12893;DHT22;6514;48.606;9.222;2023-12-20T11:27:35;8.70;99.90
12893;DHT22;6514;48.606;9.222;2023-12-20T11:30:03;8.70;99.90
12893;DHT22;6514;48.606;9.222;2023-12-20T11:32:34;8.60;99.90
12893;DHT22;6514;48.606;9.222;2023-12-20T11:35:18;8.40;99.90
12893;DHT22;6514;48.606;9.222;2023-12-20T11:37:46;8.20;99.90
12893;DHT22;6514;48.606;9.222;2023-12-20T11:40:15;8.00;99.90
12893;DHT22;6514;48.606;9.222;2023-12-20T11:42:44;7.80;99.90
12893;DHT22;6514;48.606;9.222;2023-12-20T11:45:14;7.60;99.90
12893;DHT22;6514;48.606;9.222;2023-12-20T11:47:43;7.50;99.90
12893;DHT22;6514;48.606;9.222;2023-12-20T11:50:11;7.40;99.90
12893;DHT22;6514;48.606;9.222;2023-12-20T11:52:38;7.30;99.90
12893;DHT22;6514;48.606;9.222;2023-12-20T11:55:06;7.30;99.90
12893;DHT22;6514;48.606;9.222;2023-12-20T11:57:33;7.30;99.90
12893;DHT22;6514;48.606;9.222;2023-12-20T12:00:01;7.20;99.90
12893;DHT22;6514;48.606;9.222;2023-12-20T12:02:29;7.20;99.90
12893;DHT22;6514;48.606;9.222;2023-12-20T12:04:56;7.20;99.90
12893;DHT22;6514;48.606;9.222;2023-12-20T12:07:24;7.10;99.90
12893;DHT22;6514;48.606;9.222;2023-12-20T12:09:51;7.00;99.90
12893;DHT22;6514;48.606;9.222;2023-12-20T12:12:19;6.80;99.90
12893;DHT22;6514;48.606;9.222;2023-12-20T12:14:46;6.70;99.90
12893;DHT22;6514;48.606;9.222;2023-12-20T12:17:14;6.70;99.90
12893;DHT22;6514;48.606;9.222;2023-12-20T12:19:42;6.60;99.90
12893;DHT22;6514;48.606;9.222;2023-12-20T12:22:10;6.60;99.90
12893;DHT22;6514;48.606;9.222;2023-12-20T12:24:39;6.50;99.90
12893;DHT22;6514;48.606;9.222;2023-12-20T12:27:06;6.40;99.90
12893;DHT22;6514;48.606;9.222;2023-12-20T12:29:33;6.40;99.90
12893;DHT22;6514;48.606;9.222;2023-12-20T12:32:02;6.30;99.90
12893;DHT22;6514;48.606;9.222;2023-12-20T12:34:32;6.20;99.90
12893;DHT22;6514;48.606;9.222;2023-12-20T12:36:59;6.10;99.90
12893;DHT22;6514;48.606;9.222;2023-12-20T12:39:26;6.00;99.90
12893;DHT22;6514;48.606;9.222;2023-12-20T12:41:55;5.90;99.90
12893;DHT22;6514;48.606;9.222;2023-12-20T12:44:22;5.80;99.90
12893;DHT22;6514;48.606;9.222;2023-12-20T12:46:50;5.80;99.90
12893;DHT22;6514;48.606;9.222;2023-12-20T12:49:19;5.80;99.90
12893;DHT22;6514;48.606;9.222;2023-12-20T12:51:48;5.80;99.90
12893;DHT22;6514;48.606;9.222;2023-12-20T12:54:15;5.80;99.90
12893;DHT22;6514;48.606;9.222;2023-12-20T12:56:43;5.80;99.90
12893;DHT22;6514;48.606;9.222;2023-12-20T12:59:10;5.80;99.90
12893;DHT22;6514;48.606;9.222;2023-12-20T13:01:37;5.80;99.90
12893;DHT22;6514;48.606;9.222;2023-12-20T13:04:04;5.80;99.90
12893;DHT22;6514;48.606;9.222;2023-12-20T13:06:36;5.80;99.90
12893;DHT22;6514;48.606;9.222;2023-12-20T13:09:04;5.80;99.90
12893;DHT22;6514;48.606;9.222;2023-12-20T13:11:31;5.80;99.90
12893;DHT22;6514;48.606;9.222;2023-12-20T13:13:58;5.80;99.90
12893;DHT22;6514;48.606;9.222;2023-12-20T13:16:25;5.90;99.90
12893;DHT22;6514;48.606;9.222;2023-12-20T13:18:52;5.90;99.90
12893;DHT22;6514;48.606;9.222;2023-12-20T13:21:19;6.00;99.90
12893;DHT22;6514;48.606;9.222;2023-12-20T13:23:46;6.00;99.90
12893;DHT22;6514;48.606;9.222;2023-12-20T13:26:14;6.00;99.90
12893;DHT22;6514;48.606;9.222;2023-12-20T13:28:41;6.00;99.90
12893;DHT22;6514;48.606;9.222;2023-12-20T13:31:08;6.00;99.90
12893;DHT22;6514;48.606;9.222;2023-12-20T13:33:35;6.00;99.90
12893;DHT22;6514;48.606;9.222;2023-12-20T13:36:04;6.10;99.90
12893;DHT22;6514;48.606;9.222;2023-12-20T13:38:31;6.10;99.90
12893;DHT22;6514;48.606;9.222;2023-12-20T13:40:58;6.10;99.90
12893;DHT22;6514;48.606;9.222;2023-12-20T13:43:26;6.10;99.90
12893;DHT22;6514;48.606;9.222;2023-12-20T13:45:53;6.20;99.90
12893;DHT22;6514;48.606;9.222;2023-12-20T13:48:20;6.10;99.90
12893;DHT22;6514;48.606;9.222;2023-12-20T13:50:47;6.10;99.90
12893;DHT22;6514;48.606;9.222;2023-12-20T13:53:14;6.10;99.90
12893;DHT22;6514;48.606;9.222;2023-12-20T13:55:41;6.10;99.90
12893;DHT22;6514;48.606;9.222;2023-12-20T13:58:08;6.10;99.90
12893;DHT22;6514;48.606;9.222;2023-12-20T14:00:37;6.10;99.90
12893;DHT22;6514;48.606;9.222;2023-12-20T14:03:04;6.00;99.90
12893;DHT22;6514;48.606;9.222;2023-12-20T14:05:31;6.00;99.90
12893;DHT22;6514;48.606;9.222;2023-12-20T14:07:59;6.00;99.90
12893;DHT22;6514;48.606;9.222;2023-12-20T14:10:26;6.00;99.90
12893;DHT22;6514;48.606;9.222;2023-12-20T14:12:53;6.00;99.90
12893;DHT22;6514;48.606;9.222;2023-12-20T14:15:20;5.90;99.90
12893;DHT22;6514;48.606;9.222;2023-12-20T14:17:52;6.00;99.90
12893;DHT22;6514;48.606;9.222;2023-12-20T14:20:19;6.00;99.90
12893;DHT22;6514;48.606;9.222;2023-12-20T14:22:45;5.90;99.90
12893;DHT22;6514;48.606;9.222;2023-12-20T14:25:13;5.90;99.90
12893;DHT22;6514;48.606;9.222;2023-12-20T14:27:41;5.90;99.90
12893;DHT22;6514;48.606;9.222;2023-12-20T14:30:10;5.90;99.90
12893;DHT22;6514;48.606;9.222;2023-12-20T14:32:37;5.90;99.90
12893;DHT22;6514;48.606;9.222;2023-12-20T14:35:06;5.90;99.90
12893;DHT22;6514;48.606;9.222;2023-12-20T14:37:33;5.80;99.90
12893;DHT22;6514;48.606;9.222;2023-12-20T14:40:00;5.70;99.90
12893;DHT22;6514;48.606;9.222;2023-12-20T14:42:27;5.60;99.90
12893;DHT22;6514;48.606;9.222;2023-12-20T14:44:54;5.50;99.90
12893;DHT22;6514;48.606;9.222;2023-12-20T14:47:21;5.40;99.90
12893;DHT22;6514;48.606;9.222;2023-12-20T14:49:48;4.10;99.90
12893;DHT22;6514;48.606;9.222;2023-12-20T14:52:17;5.20;99.90
12893;DHT22;6514;48.606;9.222;2023-12-20T14:54:44;5.20;99.90
12893;DHT22;6514;48.606;9.222;2023-12-20T14:57:11;5.20;99.90
12893;DHT22;6514;48.606;9.222;2023-12-20T14:59:38;5.10;99.90
12893;DHT22;6514;48.606;9.222;2023-12-20T15:02:05;5.10;99.90
12893;DHT22;6514;48.606;9.222;2023-12-20T15:04:32;5.10;99.90
12893;DHT22;6514;48.606;9.222;2023-12-20T15:06:58;5.00;99.90
12893;DHT22;6514;48.606;9.222;2023-12-20T15:09:28;5.00;99.90
12893;DHT22;6514;48.606;9.222;2023-12-20T15:11:55;5.00;99.90
12893;DHT22;6514;48.606;9.222;2023-12-20T15:14:22;4.90;99.90
12893;DHT22;6514;48.606;9.222;2023-12-20T15:16:49;4.90;99.90
12893;DHT22;6514;48.606;9.222;2023-12-20T15:19:16;4.80;99.90
12893;DHT22;6514;48.606;9.222;2023-12-20T15:21:43;4.80;99.90
12893;DHT22;6514;48.606;9.222;2023-12-20T15:24:10;4.80;99.90
12893;DHT22;6514;48.606;9.222;2023-12-20T15:26:42;4.80;99.90
12893;DHT22;6514;48.606;9.222;2023-12-20T15:29:10;4.80;99.90
12893;DHT22;6514;48.606;9.222;2023-12-20T15:31:42;4.70;99.90
12893;DHT22;6514;48.606;9.222;2023-12-20T15:34:09;4.70;99.90
12893;DHT22;6514;48.606;9.222;2023-12-20T15:36:36;4.60;99.90
12893;DHT22;6514;48.606;9.222;2023-12-20T15:39:04;4.60;99.90
12893;DHT22;6514;48.606;9.222;2023-12-20T15:41:31;4.60;99.90
12893;DHT22;6514;48.606;9.222;2023-12-20T15:43:59;4.60;99.90
12893;DHT22;6514;48.606;9.222;2023-12-20T15:46:26;4.60;99.90
12893;DHT22;6514;48.606;9.222;2023-12-20T15:48:53;4.50;99.90
12893;DHT22;6514;48.606;9.222;2023-12-20T15:51:21;4.40;99.90
12893;DHT22;6514;48.606;9.222;2023-12-20T15:53:49;4.30;99.90
12893;DHT22;6514;48.606;9.222;2023-12-20T15:56:15;4.30;99.90
12893;DHT22;6514;48.606;9.222;2023-12-20T15:58:43;4.20;99.90
12893;DHT22;6514;48.606;9.222;2023-12-20T16:01:11;4.20;99.90
12893;DHT22;6514;48.606;9.222;2023-12-20T16:03:38;4.10;99.90
12893;DHT22;6514;48.606;9.222;2023-12-20T16:06:05;4.10;99.90